Time;durP1;ratioP1;P1;durP2;ratioP2;P2;SDS_P1;SDS_P2;PMS_P1;PMS_P2;Temp;Humidity;BMP_temperature;BMP_pressure;BME280_temperature;BME280_humidity;BME280_pressure;Samples;Min_cycle;Max_cycle;Signal;HPM_P1;HPM_P2
2023/05/26 00:00:53;;;;;;;7.50;5.20;;;;;;;19.95;59.08;100971.88;5009878;28;20184;-64
2023/05/26 00:03:18;;;;;;;6.43;4.83;;;;;;;19.94;59.00;100971.06;5012590;28;20185;-64
2023/05/26 00:05:44;;;;;;;9.27;5.30;;;;;;;19.93;59.01;100965.69;5017109;28;20326;-64
2023/05/26 00:08:10;;;;;;;8.40;4.97;;;;;;;19.93;59.26;100972.25;5030925;28;20725;-64
2023/05/26 00:10:35;;;;;;;8.00;4.80;;;;;;;19.92;58.96;100982.03;5012963;28;20259;-64
2023/05/26 00:13:01;;;;;;;7.60;4.90;;;;;;;19.93;59.02;100985.75;5029312;28;20608;-64
2023/05/26 00:15:26;;;;;;;9.53;6.20;;;;;;;19.92;58.97;100984.09;5019111;28;20192;-64
2023/05/26 00:17:52;;;;;;;9.00;5.17;;;;;;;19.91;58.89;100974.66;5021576;28;20173;-64
2023/05/26 00:20:17;;;;;;;8.83;5.03;;;;;;;19.92;58.98;100986.97;5028310;28;20157;-64
2023/05/26 00:22:43;;;;;;;8.40;5.23;;;;;;;19.90;58.96;100978.72;5044558;28;20795;-64
2023/05/26 00:25:11;;;;;;;8.10;5.37;;;;;;;19.89;59.02;100979.09;5024178;28;20258;-64
2023/05/26 00:27:37;;;;;;;8.30;5.30;;;;;;;19.89;58.75;100985.69;5029411;28;20199;-64
2023/05/26 00:30:03;;;;;;;8.60;5.27;;;;;;;19.89;58.87;100988.53;5024295;28;20448;-64
2023/05/26 00:32:28;;;;;;;7.37;4.80;;;;;;;19.89;58.92;100981.97;5013068;28;20188;-64
2023/05/26 00:34:53;;;;;;;9.17;5.17;;;;;;;19.88;58.83;100981.16;5011568;28;20827;-64
2023/05/26 00:37:19;;;;;;;8.33;4.43;;;;;;;19.88;59.00;100980.31;5029844;28;20806;-64
2023/05/26 00:39:44;;;;;;;9.37;4.53;;;;;;;19.86;58.71;100972.09;5029304;28;20486;-64
2023/05/26 00:42:10;;;;;;;10.93;5.83;;;;;;;19.86;58.88;100974.94;5025726;28;20560;-64
2023/05/26 00:44:36;;;;;;;10.77;5.40;;;;;;;19.86;58.97;100974.94;5027598;28;20254;-64
2023/05/26 00:47:01;;;;;;;9.40;5.03;;;;;;;19.85;58.89;100970.44;5023679;28;20242;-64
2023/05/26 00:49:27;;;;;;;7.60;4.87;;;;;;;19.84;58.74;100971.63;5026000;28;20194;-65
2023/05/26 00:51:52;;;;;;;8.80;5.37;;;;;;;19.85;58.76;100969.59;5028267;28;20169;-64
2023/05/26 00:54:19;;;;;;;6.33;4.67;;;;;;;19.84;58.75;100968.78;5012930;28;20185;-64
2023/05/26 00:56:45;;;;;;;10.10;5.60;;;;;;;19.85;58.71;100966.72;5011510;28;20513;-64
2023/05/26 00:59:11;;;;;;;10.87;5.30;;;;;;;19.84;58.71;100956.47;5023079;28;20448;-64
2023/05/26 01:01:36;;;;;;;9.37;5.20;;;;;;;19.83;58.83;100967.13;5010282;28;20169;-64
2023/05/26 01:04:02;;;;;;;8.93;5.37;;;;;;;19.84;58.78;100968.78;5004730;28;20267;-64
2023/05/26 01:06:27;;;;;;;10.23;5.10;;;;;;;19.82;58.55;100959.69;5029848;28;20160;-64
2023/05/26 01:08:53;;;;;;;8.70;5.07;;;;;;;19.82;58.73;100968.28;5025081;28;20680;-64
2023/05/26 01:11:26;;;;;;;6.77;4.50;;;;;;;19.83;58.70;100967.13;5012109;28;20707;-64
2023/05/26 01:13:57;;;;;;;8.70;4.90;;;;;;;19.81;59.07;100958.03;5015616;28;20181;-64
2023/05/26 01:16:27;;;;;;;7.37;4.43;;;;;;;19.80;58.65;100953.53;5011458;28;20440;-64
2023/05/26 01:19:00;;;;;;;7.00;4.60;;;;;;;19.80;58.81;100959.25;4992879;28;20428;-64
2023/05/26 01:21:29;;;;;;;7.73;4.60;;;;;;;19.81;58.72;100958.03;5010578;28;20605;-64
2023/05/26 01:24:07;;;;;;;8.77;4.73;;;;;;;19.81;58.60;100955.19;5019252;28;21037;-64
2023/05/26 01:27:06;;;;;;;9.23;5.00;;;;;;;19.81;58.45;100954.38;5025957;28;20521;-64
2023/05/26 01:29:33;;;;;;;7.43;4.77;;;;;;;19.80;58.61;100959.25;5011469;28;20498;-64
2023/05/26 01:32:13;;;;;;;8.30;5.20;;;;;;;19.79;58.64;100949.00;5009824;28;21301;-64
2023/05/26 01:34:38;;;;;;;7.83;4.67;;;;;;;19.80;58.61;100950.66;4995960;28;20435;-64
2023/05/26 01:37:05;;;;;;;9.43;4.93;;;;;;;19.80;58.69;100952.69;5028413;28;21150;-64
2023/05/26 01:39:30;;;;;;;9.10;4.87;;;;;;;19.79;58.47;100943.28;5029426;28;20193;-64
2023/05/26 01:42:07;;;;;;;7.67;4.73;;;;;;;19.79;58.76;100951.88;5029244;28;20419;-64
2023/05/26 01:44:53;;;;;;;6.80;4.40;;;;;;;19.79;58.73;100948.16;5025101;28;20604;-64
2023/05/26 01:47:18;;;;;;;11.60;5.00;;;;;;;19.79;58.99;100949.00;5012557;28;20450;-64
2023/05/26 01:49:46;;;;;;;5.40;4.03;;;;;;;19.79;58.55;100956.75;5018325;28;20444;-64
2023/05/26 01:52:12;;;;;;;11.43;5.03;;;;;;;19.78;58.85;100955.94;4994305;28;20955;-64
2023/05/26 01:54:47;;;;;;;7.27;4.50;;;;;;;19.78;58.71;100955.94;5011153;28;20444;-64
2023/05/26 01:57:13;;;;;;;6.53;4.63;;;;;;;19.77;59.10;100948.53;5023974;28;20515;-64
2023/05/26 01:59:38;;;;;;;7.67;4.63;;;;;;;19.77;58.62;100942.81;5007314;28;20736;-64
2023/05/26 02:02:04;;;;;;;9.00;5.20;;;;;;;19.77;58.48;100939.94;5008705;28;20240;-64
2023/05/26 02:04:29;;;;;;;9.47;4.70;;;;;;;19.76;58.68;100941.16;5009736;28;20209;-64
2023/05/26 02:06:57;;;;;;;7.03;4.63;;;;;;;19.76;58.84;100937.47;5018739;28;20195;-64
2023/05/26 02:09:22;;;;;;;6.73;4.60;;;;;;;19.75;58.83;100952.97;5035281;28;20257;-64
2023/05/26 02:11:47;;;;;;;10.57;4.73;;;;;;;19.75;58.75;100948.09;5007608;28;20450;-64
2023/05/26 02:14:13;;;;;;;8.77;4.30;;;;;;;19.75;58.79;100952.97;5008347;28;20169;-64
2023/05/26 02:16:39;;;;;;;8.90;5.40;;;;;;;19.75;58.73;100955.84;5009351;28;20228;-64
2023/05/26 02:19:07;;;;;;;6.00;4.27;;;;;;;19.75;58.67;100952.97;5017944;28;20196;-64
2023/05/26 02:21:32;;;;;;;7.70;4.40;;;;;;;19.74;58.73;100952.16;5029241;28;20406;-64
2023/05/26 02:23:58;;;;;;;6.00;4.77;;;;;;;19.74;58.72;100952.16;5026208;28;20868;-63
2023/05/26 02:26:24;;;;;;;12.00;4.53;;;;;;;19.74;58.65;100954.19;5020694;28;20270;-64
2023/05/26 02:28:50;;;;;;;8.17;4.50;;;;;;;19.74;58.84;100959.91;5035443;28;20730;-64
2023/05/26 02:31:16;;;;;;;7.63;4.47;;;;;;;19.73;58.77;100956.22;5019964;28;20271;-64
2023/05/26 02:33:42;;;;;;;7.13;4.47;;;;;;;19.73;58.64;100950.50;5015524;28;20423;-63
2023/05/26 02:36:07;;;;;;;8.60;4.70;;;;;;;19.73;58.57;100950.50;5016320;28;20179;-63
2023/05/26 02:38:33;;;;;;;8.73;4.60;;;;;;;19.73;58.73;100941.06;5031992;28;20176;-63
2023/05/26 02:40:58;;;;;;;7.63;4.80;;;;;;;19.73;58.60;100938.19;5017117;28;20189;-62
2023/05/26 02:43:24;;;;;;;8.63;4.03;;;;;;;19.71;58.73;100941.44;5029677;28;20179;-63
2023/05/26 02:45:50;;;;;;;8.07;4.33;;;;;;;19.72;58.67;100939.41;5034951;28;20223;-62
2023/05/26 02:48:15;;;;;;;8.00;4.80;;;;;;;19.72;58.66;100948.00;5029550;28;20559;-62
2023/05/26 02:50:41;;;;;;;8.20;4.70;;;;;;;19.71;58.74;100932.84;5032914;28;20461;-62
2023/05/26 02:53:06;;;;;;;6.73;4.33;;;;;;;19.71;58.65;100946.34;5034104;28;20185;-62
2023/05/26 02:55:31;;;;;;;10.30;4.20;;;;;;;19.70;58.69;100938.94;5017762;28;20196;-62
2023/05/26 02:57:57;;;;;;;7.30;4.50;;;;;;;19.71;58.55;100946.34;5014868;28;20169;-63
2023/05/26 03:00:22;;;;;;;8.80;5.07;;;;;;;19.71;58.66;100943.50;5018000;28;20188;-62
2023/05/26 03:02:48;;;;;;;8.30;4.60;;;;;;;19.69;58.69;100938.13;5015272;28;20165;-62
2023/05/26 03:05:13;;;;;;;9.10;5.20;;;;;;;19.69;58.67;100937.28;5021823;28;20211;-62
2023/05/26 03:07:39;;;;;;;8.03;4.40;;;;;;;19.70;58.74;100938.94;5034587;28;20196;-62
2023/05/26 03:10:04;;;;;;;9.40;5.10;;;;;;;19.70;58.61;100944.66;5022483;28;20896;-62
2023/05/26 03:12:30;;;;;;;6.40;4.50;;;;;;;19.70;58.65;100950.41;4997305;28;20695;-63
2023/05/26 03:14:57;;;;;;;10.37;4.63;;;;;;;19.68;58.80;100947.94;5014952;28;20173;-62
2023/05/26 03:17:22;;;;;;;6.60;4.40;;;;;;;19.68;58.68;100936.47;5013655;28;20968;-62
2023/05/26 03:19:48;;;;;;;9.83;4.70;;;;;;;19.68;58.59;100929.91;5017277;28;20447;-62
2023/05/26 03:22:13;;;;;;;9.93;4.60;;;;;;;19.69;58.58;100928.69;5015143;28;20519;-62
2023/05/26 03:24:39;;;;;;;9.00;5.13;;;;;;;19.68;58.69;100936.47;5014750;28;20204;-64
2023/05/26 03:27:05;;;;;;;9.10;5.40;;;;;;;19.68;58.67;100936.47;5014130;28;20181;-64
2023/05/26 03:29:30;;;;;;;8.80;4.53;;;;;;;19.67;58.40;100934.78;5014223;28;20557;-64
2023/05/26 03:31:56;;;;;;;8.17;4.30;;;;;;;19.66;58.69;100932.31;5013332;28;20327;-64
2023/05/26 03:34:23;;;;;;;6.83;4.47;;;;;;;19.66;58.23;100923.72;4997672;28;20208;-64
2023/05/26 03:36:49;;;;;;;10.07;5.07;;;;;;;19.65;58.12;100931.47;5027165;28;21282;-64
2023/05/26 03:39:15;;;;;;;7.30;4.60;;;;;;;19.66;58.45;100927.41;5029879;28;20427;-64
2023/05/26 03:41:40;;;;;;;7.20;5.17;;;;;;;19.66;58.37;100930.25;5027498;28;20223;-64
2023/05/26 03:44:06;;;;;;;7.57;4.90;;;;;;;19.65;58.27;100925.75;5021809;28;20467;-64
2023/05/26 03:46:32;;;;;;;9.87;4.80;;;;;;;19.66;58.15;100926.59;5027582;28;20192;-64
2023/05/26 03:48:57;;;;;;;6.80;5.00;;;;;;;19.64;58.48;100932.69;5025946;28;20246;-64
2023/05/26 03:51:22;;;;;;;10.10;4.90;;;;;;;19.64;58.60;100924.09;5027615;28;20207;-64
2023/05/26 03:53:48;;;;;;;7.67;5.13;;;;;;;19.64;58.52;100924.09;5026793;28;20180;-63
2023/05/26 03:56:13;;;;;;;8.50;5.40;;;;;;;19.64;58.48;100929.81;5030473;28;20204;-64
2023/05/26 03:58:39;;;;;;;7.07;4.40;;;;;;;19.64;58.55;100932.69;5018952;28;20769;-63
2023/05/26 04:01:04;;;;;;;8.47;4.73;;;;;;;19.63;58.33;100938.78;5011249;28;20185;-64
2023/05/26 04:03:30;;;;;;;7.67;5.10;;;;;;;19.63;58.34;100935.91;5010343;28;21808;-63
2023/05/26 04:05:59;;;;;;;8.37;4.70;;;;;;;19.63;58.56;100935.91;5011844;28;20208;-64
2023/05/26 04:08:25;;;;;;;7.23;4.70;;;;;;;19.63;58.09;100935.91;5028050;28;20797;-63
2023/05/26 04:10:51;;;;;;;7.57;4.70;;;;;;;19.62;57.96;100937.94;5031172;28;20463;-64
2023/05/26 04:13:16;;;;;;;9.30;5.20;;;;;;;19.62;58.25;100940.00;5022762;28;20517;-63
2023/05/26 04:15:42;;;;;;;10.07;5.27;;;;;;;19.63;58.06;100930.19;5009050;28;20165;-63
2023/05/26 04:18:07;;;;;;;13.53;5.23;;;;;;;19.62;58.44;100942.84;5009513;28;20173;-64
2023/05/26 04:20:33;;;;;;;8.37;5.07;;;;;;;19.61;57.99;100930.56;5016871;28;20238;-63
2023/05/26 04:22:58;;;;;;;8.07;4.97;;;;;;;19.61;58.00;100935.47;5028089;28;20161;-63
2023/05/26 04:25:24;;;;;;;9.17;5.10;;;;;;;19.59;58.24;100932.13;5029420;28;20197;-63
2023/05/26 04:27:52;;;;;;;10.23;5.47;;;;;;;19.59;58.11;100941.56;5028364;28;20180;-63
2023/05/26 04:30:18;;;;;;;11.70;5.57;;;;;;;19.59;58.22;100938.69;5011183;28;20181;-63
2023/05/26 04:32:43;;;;;;;10.40;5.40;;;;;;;19.60;58.23;100945.25;5012610;28;20507;-63
2023/05/26 04:35:10;;;;;;;9.73;4.97;;;;;;;19.59;58.19;100937.84;5023979;28;20191;-63
2023/05/26 04:37:38;;;;;;;10.07;5.93;;;;;;;19.60;58.32;100940.34;5024026;28;20177;-63
2023/05/26 04:40:06;;;;;;;10.17;5.20;;;;;;;19.61;58.36;100942.00;5009706;28;20408;-63
2023/05/26 04:42:33;;;;;;;10.20;5.30;;;;;;;19.64;57.94;100946.16;5014856;28;20431;-63
2023/05/26 04:45:00;;;;;;;9.80;5.37;;;;;;;19.64;57.88;100941.28;5009897;28;20873;-62
2023/05/26 04:47:27;;;;;;;10.20;4.57;;;;;;;19.65;57.92;100945.78;5009306;28;20779;-63
2023/05/26 04:49:53;;;;;;;7.27;5.10;;;;;;;19.64;58.11;100944.16;5025691;28;20533;-63
2023/05/26 04:52:18;;;;;;;8.43;5.00;;;;;;;19.65;58.15;100940.06;5027917;28;20942;-64
2023/05/26 04:54:43;;;;;;;8.33;5.20;;;;;;;19.66;58.04;100953.19;5018108;28;20228;-63
2023/05/26 04:57:09;;;;;;;7.10;4.80;;;;;;;19.66;58.06;100949.50;5009840;28;20161;-63
2023/05/26 04:59:37;;;;;;;7.73;4.63;;;;;;;19.65;58.10;100957.25;5012055;28;20249;-63
2023/05/26 05:02:03;;;;;;;9.03;5.50;;;;;;;19.65;58.08;100956.41;5019059;28;20940;-63
2023/05/26 05:04:28;;;;;;;7.53;4.97;;;;;;;19.64;58.19;100966.22;5030031;28;20455;-63
2023/05/26 05:06:54;;;;;;;6.97;4.10;;;;;;;19.64;58.04;100955.59;5027572;28;20587;-64
2023/05/26 05:09:21;;;;;;;8.67;4.67;;;;;;;19.62;58.24;100960.84;5024832;28;20239;-63
2023/05/26 05:11:46;;;;;;;9.60;5.23;;;;;;;19.63;57.95;100964.56;5030180;28;20917;-63
2023/05/26 05:14:12;;;;;;;8.50;5.13;;;;;;;19.63;58.42;100978.88;5022661;28;20431;-64
2023/05/26 05:16:37;;;;;;;6.70;4.40;;;;;;;19.61;58.21;100976.38;5008042;28;20178;-63
2023/05/26 05:19:03;;;;;;;8.60;5.23;;;;;;;19.62;58.23;100977.22;5009954;28;20181;-63
2023/05/26 05:21:28;;;;;;;9.37;5.33;;;;;;;19.62;58.11;100974.38;5010653;28;20189;-63
2023/05/26 05:23:54;;;;;;;7.67;5.50;;;;;;;19.63;58.01;100978.88;5009723;28;20181;-63
2023/05/26 05:26:21;;;;;;;6.53;4.80;;;;;;;19.62;58.35;100980.09;5011773;28;20184;-63
2023/05/26 05:28:46;;;;;;;10.70;5.57;;;;;;;19.62;58.34;100978.03;5009699;28;20165;-63
2023/05/26 05:31:12;;;;;;;9.47;4.80;;;;;;;19.63;58.10;100982.59;5008552;28;20932;-63
2023/05/26 05:33:38;;;;;;;8.23;4.97;;;;;;;19.64;58.13;100969.94;5010349;28;20649;-63
2023/05/26 05:36:04;;;;;;;8.90;5.60;;;;;;;19.66;57.96;100983.88;5007799;28;20173;-63
2023/05/26 05:38:30;;;;;;;7.33;5.07;;;;;;;19.65;57.93;100991.63;5023510;28;20497;-63
2023/05/26 05:40:55;;;;;;;8.43;5.60;;;;;;;19.65;57.72;100993.66;5029822;28;20208;-63
2023/05/26 05:43:20;;;;;;;7.47;5.17;;;;;;;19.64;58.07;100992.00;5010060;28;20207;-63
2023/05/26 05:45:46;;;;;;;10.63;5.70;;;;;;;19.64;58.06;101004.31;5028753;28;20188;-63
2023/05/26 05:48:11;;;;;;;8.70;5.37;;;;;;;19.65;57.70;101010.84;5016100;28;20211;-63
2023/05/26 05:50:37;;;;;;;9.33;4.87;;;;;;;19.66;58.05;101001.06;5009895;28;20189;-63
2023/05/26 05:53:02;;;;;;;7.97;5.50;;;;;;;19.64;57.88;101006.31;5008909;28;20178;-63
2023/05/26 05:55:28;;;;;;;8.77;4.77;;;;;;;19.63;58.23;101007.53;5008647;28;20177;-62
2023/05/26 05:57:54;;;;;;;8.70;5.13;;;;;;;19.63;58.21;101004.66;5011283;28;20192;-63
2023/05/26 06:00:19;;;;;;;8.57;5.47;;;;;;;19.62;58.09;101009.56;5007532;28;20176;-63
2023/05/26 06:02:45;;;;;;;9.33;5.23;;;;;;;19.63;58.13;101008.38;5011560;28;20813;-63
2023/05/26 06:05:10;;;;;;;8.20;4.57;;;;;;;19.63;57.87;101007.53;5007449;28;20720;-62
2023/05/26 06:07:36;;;;;;;8.80;5.77;;;;;;;19.64;58.18;101015.75;5016071;28;20197;-63
2023/05/26 06:10:01;;;;;;;13.10;6.10;;;;;;;19.64;57.89;101014.91;5008723;28;20236;-63
2023/05/26 06:12:27;;;;;;;10.70;5.23;;;;;;;19.65;57.88;101017.41;5008957;28;20196;-63
2023/05/26 06:14:52;;;;;;;10.03;5.00;;;;;;;19.65;58.01;101026.00;5008522;28;20184;-63
2023/05/26 06:17:18;;;;;;;10.00;5.70;;;;;;;19.65;57.96;101028.03;5017937;28;20315;-63
2023/05/26 06:19:43;;;;;;;7.57;5.40;;;;;;;19.65;58.00;101022.31;5028820;28;20165;-63
2023/05/26 06:22:08;;;;;;;9.77;5.60;;;;;;;19.64;58.21;101030.09;5028537;28;20176;-63
2023/05/26 06:24:34;;;;;;;7.43;4.90;;;;;;;19.63;58.04;101034.16;5027837;28;20208;-63
2023/05/26 06:26:59;;;;;;;9.53;5.60;;;;;;;19.62;58.38;101028.78;5023282;28;20191;-63
2023/05/26 06:29:25;;;;;;;10.30;5.53;;;;;;;19.63;58.06;101031.28;5028319;28;20165;-63
2023/05/26 06:31:50;;;;;;;11.70;5.50;;;;;;;19.62;58.05;101038.19;5024562;28;20253;-62
2023/05/26 06:34:16;;;;;;;13.53;5.70;;;;;;;19.61;58.20;101027.13;5028176;28;20184;-63
2023/05/26 06:36:41;;;;;;;10.67;5.40;;;;;;;19.59;57.90;101024.63;5021980;28;20183;-62
2023/05/26 06:39:07;;;;;;;8.80;5.30;;;;;;;19.62;57.98;101028.78;5028005;28;20191;-63
2023/05/26 06:41:32;;;;;;;12.00;5.27;;;;;;;19.61;57.92;101027.94;5012382;28;20212;-62
2023/05/26 06:43:57;;;;;;;9.20;5.60;;;;;;;19.61;58.10;101027.13;5024924;28;20172;-63
2023/05/26 06:46:23;;;;;;;9.53;4.97;;;;;;;19.61;57.92;101033.66;5016731;28;20185;-63
2023/05/26 06:48:48;;;;;;;9.93;5.00;;;;;;;19.61;58.05;101027.13;5008330;28;20165;-63
2023/05/26 06:51:14;;;;;;;7.33;4.90;;;;;;;19.62;57.79;101031.66;5010337;28;20524;-63
2023/05/26 06:53:39;;;;;;;10.33;5.23;;;;;;;19.62;57.84;101031.66;5005696;28;20181;-63
2023/05/26 06:56:05;;;;;;;9.13;5.50;;;;;;;19.62;57.95;101034.53;5010344;28;20189;-63
2023/05/26 06:58:31;;;;;;;8.10;5.43;;;;;;;19.61;57.80;101033.66;5008196;28;20304;-63
2023/05/26 07:00:57;;;;;;;8.10;5.20;;;;;;;19.62;57.91;101034.53;5014831;28;20551;-64
2023/05/26 07:03:22;;;;;;;10.33;5.30;;;;;;;19.61;58.06;101027.94;5026499;28;20192;-64
2023/05/26 07:05:48;;;;;;;12.10;5.70;;;;;;;19.62;57.97;101034.53;5023517;28;20300;-64
2023/05/26 07:08:13;;;;;;;11.23;5.30;;;;;;;19.61;57.82;101039.41;5022951;28;20201;-63
2023/05/26 07:10:39;;;;;;;8.17;5.13;;;;;;;19.61;57.98;101036.53;5027385;28;20311;-63
2023/05/26 07:13:05;;;;;;;7.63;5.47;;;;;;;19.61;58.12;101033.66;5026762;28;20192;-63
2023/05/26 07:15:30;;;;;;;11.20;5.60;;;;;;;19.62;57.98;101037.38;5029711;28;20275;-63
2023/05/26 07:17:55;;;;;;;7.33;4.80;;;;;;;19.61;58.25;101038.59;5027072;28;20196;-64
2023/05/26 07:20:21;;;;;;;9.83;5.87;;;;;;;19.62;57.99;101040.25;5012134;28;20184;-63
2023/05/26 07:22:46;;;;;;;10.47;5.40;;;;;;;19.60;58.09;101037.75;5012033;28;20272;-63
2023/05/26 07:25:12;;;;;;;8.70;4.60;;;;;;;19.59;58.04;101041.81;5016437;28;20219;-63
2023/05/26 07:27:37;;;;;;;12.97;5.17;;;;;;;19.61;57.97;101045.13;5011295;28;20223;-64
2023/05/26 07:30:03;;;;;;;11.30;5.60;;;;;;;19.61;57.77;101048.00;5013126;28;20197;-63
2023/05/26 07:32:29;;;;;;;9.70;4.47;;;;;;;19.62;58.01;101048.84;5011767;28;20262;-64
2023/05/26 07:34:54;;;;;;;9.50;5.60;;;;;;;19.62;57.84;101040.25;5009824;28;20181;-63
2023/05/26 07:37:20;;;;;;;10.20;4.50;;;;;;;19.62;57.95;101045.97;5019159;28;20188;-63
2023/05/26 07:39:45;;;;;;;8.60;5.70;;;;;;;19.62;57.71;101040.25;5021552;28;20193;-63
2023/05/26 07:42:10;;;;;;;9.10;5.90;;;;;;;19.62;57.99;101043.94;5014813;28;20177;-63
2023/05/26 07:44:36;;;;;;;12.30;5.30;;;;;;;19.62;57.93;101046.78;5019817;28;20212;-63
2023/05/26 07:47:01;;;;;;;9.23;5.10;;;;;;;19.62;57.79;101041.06;5009432;28;20177;-63
2023/05/26 07:49:27;;;;;;;8.43;5.00;;;;;;;19.62;57.90;101045.97;5011715;28;20185;-64
2023/05/26 07:51:52;;;;;;;9.07;5.13;;;;;;;19.61;57.88;101050.88;5014975;28;20180;-63
2023/05/26 07:54:18;;;;;;;8.63;5.23;;;;;;;19.61;57.95;101048.00;5010973;28;20162;-63
2023/05/26 07:56:43;;;;;;;9.00;5.00;;;;;;;19.61;57.82;101042.28;5018479;28;20201;-64
2023/05/26 07:59:08;;;;;;;9.50;5.43;;;;;;;19.62;57.97;101045.97;5027086;28;20189;-63
2023/05/26 08:01:34;;;;;;;10.73;5.17;;;;;;;19.62;58.00;101052.50;5019864;28;20192;-63
2023/05/26 08:03:59;;;;;;;8.30;5.70;;;;;;;19.63;57.97;101053.38;5010974;28;20613;-63
2023/05/26 08:06:25;;;;;;;10.20;5.30;;;;;;;19.62;58.11;101048.84;5011827;28;20169;-64
2023/05/26 08:08:50;;;;;;;10.40;6.00;;;;;;;19.62;58.19;101038.19;5027974;28;20652;-63
2023/05/26 08:11:17;;;;;;;9.57;5.47;;;;;;;19.62;58.07;101046.78;5029632;28;20248;-64
2023/05/26 08:13:42;;;;;;;17.13;6.23;;;;;;;19.63;58.12;101039.03;5018672;28;20475;-64
2023/05/26 08:16:08;;;;;;;9.53;5.10;;;;;;;19.63;58.15;101042.75;5007246;28;20180;-64
2023/05/26 08:18:33;;;;;;;10.37;6.10;;;;;;;19.64;58.28;101040.69;5010924;28;20177;-64
2023/05/26 08:20:59;;;;;;;12.27;5.00;;;;;;;19.65;57.96;101045.22;5010635;28;20200;-64
2023/05/26 08:23:24;;;;;;;16.43;5.47;;;;;;;19.63;58.08;101037.03;5009184;28;20200;-63
2023/05/26 08:25:50;;;;;;;13.17;5.37;;;;;;;19.63;58.23;101037.03;4992371;28;20279;-64
2023/05/26 08:28:15;;;;;;;9.80;5.20;;;;;;;19.63;58.28;101042.75;5016734;28;20564;-63
2023/05/26 08:30:41;;;;;;;7.90;5.03;;;;;;;19.64;58.32;101047.28;5008678;28;20268;-63
2023/05/26 08:33:07;;;;;;;11.60;5.73;;;;;;;19.64;58.22;101034.97;5009310;28;20180;-64
2023/05/26 08:35:32;;;;;;;12.63;5.20;;;;;;;19.65;58.17;101040.34;5027405;28;20190;-63
2023/05/26 08:37:57;;;;;;;15.73;5.73;;;;;;;19.64;57.86;101043.56;5027514;28;20724;-63
2023/05/26 08:40:23;;;;;;;11.30;6.13;;;;;;;19.65;57.99;101040.34;5008654;28;20624;-63
2023/05/26 08:42:51;;;;;;;14.40;6.43;;;;;;;19.65;58.27;101039.50;5015780;28;20192;-63
2023/05/26 08:45:16;;;;;;;12.10;5.50;;;;;;;19.65;58.34;101040.34;5010830;28;20200;-63
2023/05/26 08:47:42;;;;;;;11.03;5.73;;;;;;;19.66;58.31;101044.84;5028987;28;20458;-63
2023/05/26 08:50:08;;;;;;;11.33;6.53;;;;;;;19.67;58.38;101037.91;5029001;28;20183;-63
2023/05/26 08:52:34;;;;;;;10.37;6.10;;;;;;;19.67;58.34;101040.78;5023899;28;20277;-63
2023/05/26 08:55:00;;;;;;;11.67;5.27;;;;;;;19.66;58.29;101041.19;5003121;28;20264;-63
2023/05/26 08:57:27;;;;;;;13.60;5.70;;;;;;;19.67;58.32;101037.09;5016448;28;20420;-63
2023/05/26 08:59:52;;;;;;;10.27;6.30;;;;;;;19.67;58.33;101029.31;5007697;28;20196;-64
2023/05/26 09:02:17;;;;;;;11.20;5.80;;;;;;;19.67;58.33;101037.91;5001996;28;20435;-63
2023/05/26 09:04:43;;;;;;;9.17;5.23;;;;;;;19.68;58.28;101031.00;5010957;28;20208;-63
2023/05/26 09:07:08;;;;;;;10.07;6.27;;;;;;;19.68;58.29;101027.31;5040901;28;20180;-63
2023/05/26 09:09:34;;;;;;;11.57;6.80;;;;;;;19.68;58.39;101031.00;5025595;28;20240;-63
2023/05/26 09:12:00;;;;;;;16.50;6.10;;;;;;;19.70;58.22;101036.34;5043902;28;20170;-63
2023/05/26 09:14:25;;;;;;;12.70;6.73;;;;;;;19.69;58.47;101031.81;4990005;28;20188;-63
2023/05/26 09:16:54;;;;;;;16.00;6.23;;;;;;;19.70;58.45;101031.47;5010598;28;20161;-63
2023/05/26 09:19:20;;;;;;;9.47;5.63;;;;;;;19.70;58.31;101040.06;5003133;28;20192;-63
2023/05/26 09:21:49;;;;;;;11.70;6.10;;;;;;;19.72;58.28;101029.03;5008677;28;20421;-62
2023/05/26 09:24:16;;;;;;;14.90;6.90;;;;;;;19.72;58.48;101028.22;5014656;28;20230;-63
2023/05/26 09:26:41;;;;;;;9.93;6.20;;;;;;;19.72;58.38;101034.78;5018582;28;20871;-63
2023/05/26 09:29:07;;;;;;;14.30;6.90;;;;;;;19.71;58.56;101035.16;5027622;28;20423;-63
2023/05/26 09:31:42;;;;;;;9.33;5.60;;;;;;;19.72;58.76;101034.78;5018373;28;20199;-63
2023/05/26 09:34:08;;;;;;;12.57;6.20;;;;;;;19.74;58.75;101034.41;5020172;28;20573;-63
2023/05/26 09:36:34;;;;;;;12.00;6.43;;;;;;;19.73;58.55;101036.47;5009780;28;20411;-63
2023/05/26 09:39:00;;;;;;;14.40;5.90;;;;;;;19.74;58.71;101026.66;5022512;28;20188;-63
2023/05/26 09:41:37;;;;;;;12.10;5.90;;;;;;;19.74;58.71;101026.66;4991087;28;20970;-63
2023/05/26 09:44:10;;;;;;;12.67;6.83;;;;;;;19.74;58.96;101038.13;4975402;28;20189;-63
2023/05/26 09:46:36;;;;;;;12.27;6.70;;;;;;;19.73;58.76;101030.72;5028071;28;20420;-63
2023/05/26 09:49:07;;;;;;;11.10;6.23;;;;;;;19.75;58.69;101034.03;5008173;28;20431;-62
2023/05/26 09:51:32;;;;;;;11.53;6.27;;;;;;;19.75;58.60;101033.19;5008110;28;20308;-64
2023/05/26 09:53:58;;;;;;;12.73;6.17;;;;;;;19.76;58.83;101034.88;4992748;28;20447;-63
2023/05/26 09:56:24;;;;;;;9.30;6.40;;;;;;;19.78;58.81;101030.44;4990245;28;20185;-63
2023/05/26 09:58:49;;;;;;;10.27;6.20;;;;;;;19.77;58.80;101028.75;5007799;28;20176;-63
2023/05/26 10:01:15;;;;;;;10.00;5.97;;;;;;;19.79;58.83;101036.97;4985696;28;20497;-63
2023/05/26 10:03:40;;;;;;;11.70;6.10;;;;;;;19.80;58.72;101036.63;5008990;28;20153;-63
2023/05/26 10:06:06;;;;;;;13.00;7.17;;;;;;;19.79;58.97;101037.81;5008304;28;20475;-63
2023/05/26 10:08:32;;;;;;;10.67;6.10;;;;;;;19.81;58.83;101046.88;4993294;28;20208;-63
2023/05/26 10:10:57;;;;;;;14.07;7.17;;;;;;;19.80;58.65;101028.03;5007504;28;20233;-64
2023/05/26 10:13:23;;;;;;;14.07;7.13;;;;;;;19.80;58.37;101030.03;5005955;28;20872;-62
2023/05/26 10:15:48;;;;;;;13.70;7.40;;;;;;;19.80;58.55;101036.63;5006264;28;20177;-63
2023/05/26 10:18:14;;;;;;;12.80;5.90;;;;;;;19.82;58.59;101030.53;5016564;28;21152;-63
2023/05/26 10:20:40;;;;;;;13.67;7.20;;;;;;;19.81;58.61;101032.53;5007642;28;20185;-63
2023/05/26 10:23:07;;;;;;;9.30;6.43;;;;;;;19.82;58.35;101031.34;5017652;28;20188;-63
2023/05/26 10:25:43;;;;;;;15.70;6.67;;;;;;;19.82;58.26;101028.47;5021877;28;20468;-63
2023/05/26 10:28:19;;;;;;;12.53;6.50;;;;;;;19.82;58.34;101027.66;5010375;28;20989;-63
2023/05/26 10:30:45;;;;;;;11.40;7.03;;;;;;;19.85;58.48;101032.63;5006119;28;20446;-63
2023/05/26 10:33:11;;;;;;;14.63;7.17;;;;;;;19.84;58.43;101026.09;5013265;28;20420;-63
2023/05/26 10:35:37;;;;;;;12.73;7.50;;;;;;;19.86;58.29;101029.41;5017286;28;20169;-63
2023/05/26 10:38:03;;;;;;;15.23;6.73;;;;;;;19.84;58.39;101031.81;5013472;28;20431;-63
2023/05/26 10:40:44;;;;;;;14.80;7.47;;;;;;;19.85;58.26;101035.50;5007679;28;20712;-63
2023/05/26 10:43:23;;;;;;;13.83;6.57;;;;;;;19.84;58.17;101031.81;5019946;28;20180;-63
2023/05/26 10:46:00;;;;;;;8.83;6.30;;;;;;;19.85;58.21;101016.28;5025871;28;20461;-63
2023/05/26 10:48:54;;;;;;;11.50;6.70;;;;;;;19.88;58.39;101023.28;5014670;28;20489;-64
2023/05/26 10:51:27;;;;;;;11.33;7.30;;;;;;;19.87;58.02;101025.31;5030276;28;20976;-63
2023/05/26 10:53:56;;;;;;;14.27;6.83;;;;;;;19.87;58.05;101019.59;5027996;28;20533;-63
2023/05/26 10:56:40;;;;;;;11.47;6.33;;;;;;;19.90;57.91;101016.00;5012906;28;20482;-63
2023/05/26 10:59:06;;;;;;;12.77;7.20;;;;;;;19.89;57.80;101013.50;5012126;28;20427;-63
2023/05/26 11:01:32;;;;;;;12.73;7.87;;;;;;;19.89;58.16;101014.34;5013087;28;20439;-62
2023/05/26 11:04:04;;;;;;;17.33;7.07;;;;;;;19.90;57.95;101007.38;5040043;28;20500;-64
2023/05/26 11:06:51;;;;;;;14.87;7.60;;;;;;;19.90;57.83;101007.38;5022565;28;20554;-63
2023/05/26 11:09:24;;;;;;;14.83;6.60;;;;;;;19.91;58.09;101009.03;5011070;28;20490;-63
2023/05/26 11:11:59;;;;;;;14.57;7.00;;;;;;;19.90;58.03;100998.78;5014919;28;20436;-63
2023/05/26 11:14:28;;;;;;;18.03;7.07;;;;;;;19.90;57.66;101004.53;5030791;28;20422;-64
2023/05/26 11:17:01;;;;;;;12.87;6.97;;;;;;;19.93;57.61;100997.22;5030258;28;20434;-63
2023/05/26 11:19:38;;;;;;;13.43;7.10;;;;;;;19.94;57.69;100996.84;5019975;28;20870;-63